sensor_id;sensor_type;location;lat;lon;timestamp;pressure;altitude;pressure_sealevel;temperature
23208;BMP180;11773;52.570;13.052;2023-04-03T00:01:43;102718.00;;;8.20
23208;BMP180;11773;52.570;13.052;2023-04-03T00:04:13;102722.00;;;8.20
23208;BMP180;11773;52.570;13.052;2023-04-03T00:06:43;102725.00;;;8.30
23208;BMP180;11773;52.570;13.052;2023-04-03T00:09:13;102735.00;;;8.20
23208;BMP180;11773;52.570;13.052;2023-04-03T00:11:49;102734.00;;;8.20
23208;BMP180;11773;52.570;13.052;2023-04-03T00:14:19;102733.00;;;8.20
23208;BMP180;11773;52.570;13.052;2023-04-03T00:16:48;102751.00;;;8.30
23208;BMP180;11773;52.570;13.052;2023-04-03T00:19:18;102732.00;;;8.20
23208;BMP180;11773;52.570;13.052;2023-04-03T00:21:47;102736.00;;;8.20
23208;BMP180;11773;52.570;13.052;2023-04-03T00:24:17;102749.00;;;8.20
23208;BMP180;11773;52.570;13.052;2023-04-03T00:26:46;102737.00;;;8.20
23208;BMP180;11773;52.570;13.052;2023-04-03T00:29:16;102749.00;;;8.30
23208;BMP180;11773;52.570;13.052;2023-04-03T00:31:45;102740.00;;;8.30
23208;BMP180;11773;52.570;13.052;2023-04-03T00:34:15;102750.00;;;8.30
23208;BMP180;11773;52.570;13.052;2023-04-03T00:36:44;102738.00;;;8.30
23208;BMP180;11773;52.570;13.052;2023-04-03T00:39:14;102742.00;;;8.30
23208;BMP180;11773;52.570;13.052;2023-04-03T00:41:44;102754.00;;;8.30
23208;BMP180;11773;52.570;13.052;2023-04-03T00:44:22;102735.00;;;8.30
23208;BMP180;11773;52.570;13.052;2023-04-03T00:46:52;102745.00;;;8.30
23208;BMP180;11773;52.570;13.052;2023-04-03T00:49:21;102745.00;;;8.30
23208;BMP180;11773;52.570;13.052;2023-04-03T00:51:51;102748.00;;;8.30
23208;BMP180;11773;52.570;13.052;2023-04-03T00:54:21;102750.00;;;8.30
23208;BMP180;11773;52.570;13.052;2023-04-03T00:56:54;102757.00;;;8.30
23208;BMP180;11773;52.570;13.052;2023-04-03T00:59:31;102760.00;;;8.30
23208;BMP180;11773;52.570;13.052;2023-04-03T01:02:02;102754.00;;;8.30
23208;BMP180;11773;52.570;13.052;2023-04-03T01:04:39;102742.00;;;8.30
23208;BMP180;11773;52.570;13.052;2023-04-03T01:07:17;102747.00;;;8.30
23208;BMP180;11773;52.570;13.052;2023-04-03T01:09:50;102748.00;;;8.30
23208;BMP180;11773;52.570;13.052;2023-04-03T01:12:30;102756.00;;;8.30
23208;BMP180;11773;52.570;13.052;2023-04-03T01:15:18;102755.00;;;8.30
23208;BMP180;11773;52.570;13.052;2023-04-03T01:17:51;102757.00;;;8.30
23208;BMP180;11773;52.570;13.052;2023-04-03T01:23:23;102758.00;;;8.30
23208;BMP180;11773;52.570;13.052;2023-04-03T01:25:55;102762.00;;;8.30
23208;BMP180;11773;52.570;13.052;2023-04-03T01:28:30;102757.00;;;8.30
23208;BMP180;11773;52.570;13.052;2023-04-03T01:31:31;102749.00;;;8.30
23208;BMP180;11773;52.570;13.052;2023-04-03T01:33:59;102747.00;;;8.20
23208;BMP180;11773;52.570;13.052;2023-04-03T01:36:31;102758.00;;;8.30
23208;BMP180;11773;52.570;13.052;2023-04-03T01:39:01;102757.00;;;8.30
23208;BMP180;11773;52.570;13.052;2023-04-03T01:41:31;102754.00;;;8.30
23208;BMP180;11773;52.570;13.052;2023-04-03T01:44:00;102756.00;;;8.30
23208;BMP180;11773;52.570;13.052;2023-04-03T01:46:30;102757.00;;;8.30
23208;BMP180;11773;52.570;13.052;2023-04-03T01:49:01;102761.00;;;8.30
23208;BMP180;11773;52.570;13.052;2023-04-03T01:51:31;102762.00;;;8.30
23208;BMP180;11773;52.570;13.052;2023-04-03T01:54:01;102769.00;;;8.30
23208;BMP180;11773;52.570;13.052;2023-04-03T01:56:31;102778.00;;;8.30
23208;BMP180;11773;52.570;13.052;2023-04-03T01:59:00;102765.00;;;8.30
23208;BMP180;11773;52.570;13.052;2023-04-03T02:01:30;102770.00;;;8.30
23208;BMP180;11773;52.570;13.052;2023-04-03T02:03:59;102767.00;;;8.30
23208;BMP180;11773;52.570;13.052;2023-04-03T02:06:29;102774.00;;;8.30
23208;BMP180;11773;52.570;13.052;2023-04-03T02:08:58;102786.00;;;8.30
23208;BMP180;11773;52.570;13.052;2023-04-03T02:11:28;102785.00;;;8.30
23208;BMP180;11773;52.570;13.052;2023-04-03T02:13:57;102774.00;;;8.30
23208;BMP180;11773;52.570;13.052;2023-04-03T02:16:27;102773.00;;;8.30
23208;BMP180;11773;52.570;13.052;2023-04-03T02:18:57;102762.00;;;8.30
23208;BMP180;11773;52.570;13.052;2023-04-03T02:21:27;102768.00;;;8.20
23208;BMP180;11773;52.570;13.052;2023-04-03T02:23:56;102779.00;;;8.20
23208;BMP180;11773;52.570;13.052;2023-04-03T02:26:26;102777.00;;;8.20
23208;BMP180;11773;52.570;13.052;2023-04-03T02:28:55;102797.00;;;8.20
23208;BMP180;11773;52.570;13.052;2023-04-03T02:31:25;102777.00;;;8.10
23208;BMP180;11773;52.570;13.052;2023-04-03T02:33:55;102793.00;;;8.10
23208;BMP180;11773;52.570;13.052;2023-04-03T02:36:24;102804.00;;;8.10
23208;BMP180;11773;52.570;13.052;2023-04-03T02:38:54;102796.00;;;8.10
23208;BMP180;11773;52.570;13.052;2023-04-03T02:41:23;102789.00;;;8.00
23208;BMP180;11773;52.570;13.052;2023-04-03T02:43:54;102804.00;;;8.00
23208;BMP180;11773;52.570;13.052;2023-04-03T02:46:24;102810.00;;;8.00
23208;BMP180;11773;52.570;13.052;2023-04-03T02:48:54;102808.00;;;8.00
23208;BMP180;11773;52.570;13.052;2023-04-03T02:51:23;102823.00;;;8.00
23208;BMP180;11773;52.570;13.052;2023-04-03T02:53:53;102812.00;;;8.00
23208;BMP180;11773;52.570;13.052;2023-04-03T02:56:23;102814.00;;;8.00
23208;BMP180;11773;52.570;13.052;2023-04-03T02:58:53;102815.00;;;8.00
23208;BMP180;11773;52.570;13.052;2023-04-03T03:01:22;102817.00;;;8.00
23208;BMP180;11773;52.570;13.052;2023-04-03T03:03:52;102811.00;;;8.00
23208;BMP180;11773;52.570;13.052;2023-04-03T03:06:21;102832.00;;;8.00
23208;BMP180;11773;52.570;13.052;2023-04-03T03:08:51;102816.00;;;8.00
23208;BMP180;11773;52.570;13.052;2023-04-03T03:11:21;102817.00;;;8.00
23208;BMP180;11773;52.570;13.052;2023-04-03T03:13:50;102819.00;;;8.00
23208;BMP180;11773;52.570;13.052;2023-04-03T03:16:20;102817.00;;;8.00
23208;BMP180;11773;52.570;13.052;2023-04-03T03:18:49;102815.00;;;7.90
23208;BMP180;11773;52.570;13.052;2023-04-03T03:21:19;102819.00;;;7.90
23208;BMP180;11773;52.570;13.052;2023-04-03T03:23:48;102824.00;;;7.90
23208;BMP180;11773;52.570;13.052;2023-04-03T03:26:18;102837.00;;;7.90
23208;BMP180;11773;52.570;13.052;2023-04-03T03:28:47;102829.00;;;7.90
23208;BMP180;11773;52.570;13.052;2023-04-03T03:31:17;102833.00;;;7.90
23208;BMP180;11773;52.570;13.052;2023-04-03T03:33:46;102837.00;;;7.90
23208;BMP180;11773;52.570;13.052;2023-04-03T03:36:16;102827.00;;;7.90
23208;BMP180;11773;52.570;13.052;2023-04-03T03:38:46;102831.00;;;7.90
23208;BMP180;11773;52.570;13.052;2023-04-03T03:41:15;102827.00;;;7.90
23208;BMP180;11773;52.570;13.052;2023-04-03T03:43:45;102832.00;;;7.90
23208;BMP180;11773;52.570;13.052;2023-04-03T03:46:14;102826.00;;;7.90
23208;BMP180;11773;52.570;13.052;2023-04-03T03:48:44;102826.00;;;7.90
23208;BMP180;11773;52.570;13.052;2023-04-03T03:51:14;102825.00;;;7.80
23208;BMP180;11773;52.570;13.052;2023-04-03T03:53:43;102842.00;;;7.80
23208;BMP180;11773;52.570;13.052;2023-04-03T03:56:13;102826.00;;;7.80
23208;BMP180;11773;52.570;13.052;2023-04-03T03:58:42;102835.00;;;7.80
23208;BMP180;11773;52.570;13.052;2023-04-03T04:01:12;102823.00;;;7.80
23208;BMP180;11773;52.570;13.052;2023-04-03T04:03:42;102825.00;;;7.80
23208;BMP180;11773;52.570;13.052;2023-04-03T04:06:11;102827.00;;;7.80
23208;BMP180;11773;52.570;13.052;2023-04-03T04:08:41;102839.00;;;7.80
23208;BMP180;11773;52.570;13.052;2023-04-03T04:11:11;102822.00;;;7.80
23208;BMP180;11773;52.570;13.052;2023-04-03T04:13:40;102827.00;;;7.80
23208;BMP180;11773;52.570;13.052;2023-04-03T04:16:10;102823.00;;;7.80
23208;BMP180;11773;52.570;13.052;2023-04-03T04:18:39;102826.00;;;7.80
23208;BMP180;11773;52.570;13.052;2023-04-03T04:21:09;102820.00;;;7.80
23208;BMP180;11773;52.570;13.052;2023-04-03T04:23:38;102819.00;;;7.70
23208;BMP180;11773;52.570;13.052;2023-04-03T04:26:08;102829.00;;;7.70
23208;BMP180;11773;52.570;13.052;2023-04-03T04:28:37;102822.00;;;7.70
23208;BMP180;11773;52.570;13.052;2023-04-03T04:31:07;102845.00;;;7.70
23208;BMP180;11773;52.570;13.052;2023-04-03T04:33:37;102823.00;;;7.70
23208;BMP180;11773;52.570;13.052;2023-04-03T04:36:06;102828.00;;;7.70
23208;BMP180;11773;52.570;13.052;2023-04-03T04:38:36;102827.00;;;7.70
23208;BMP180;11773;52.570;13.052;2023-04-03T04:41:06;102830.00;;;7.70
23208;BMP180;11773;52.570;13.052;2023-04-03T04:43:37;102846.00;;;7.70
23208;BMP180;11773;52.570;13.052;2023-04-03T04:46:09;102836.00;;;7.70
23208;BMP180;11773;52.570;13.052;2023-04-03T04:48:41;102845.00;;;7.60
23208;BMP180;11773;52.570;13.052;2023-04-03T04:51:11;102838.00;;;7.60
23208;BMP180;11773;52.570;13.052;2023-04-03T04:53:41;102852.00;;;7.60
23208;BMP180;11773;52.570;13.052;2023-04-03T04:56:11;102840.00;;;7.60
23208;BMP180;11773;52.570;13.052;2023-04-03T04:58:41;102847.00;;;7.60
23208;BMP180;11773;52.570;13.052;2023-04-03T05:01:11;102850.00;;;7.60
23208;BMP180;11773;52.570;13.052;2023-04-03T05:03:41;102866.00;;;7.60
23208;BMP180;11773;52.570;13.052;2023-04-03T05:06:10;102864.00;;;7.60
23208;BMP180;11773;52.570;13.052;2023-04-03T05:08:40;102858.00;;;7.50
23208;BMP180;11773;52.570;13.052;2023-04-03T05:11:09;102875.00;;;7.50
23208;BMP180;11773;52.570;13.052;2023-04-03T05:13:39;102877.00;;;7.50
23208;BMP180;11773;52.570;13.052;2023-04-03T05:16:08;102863.00;;;7.50
23208;BMP180;11773;52.570;13.052;2023-04-03T05:18:38;102865.00;;;7.50
23208;BMP180;11773;52.570;13.052;2023-04-03T05:21:08;102865.00;;;7.50
23208;BMP180;11773;52.570;13.052;2023-04-03T05:23:37;102864.00;;;7.50
23208;BMP180;11773;52.570;13.052;2023-04-03T05:26:07;102869.00;;;7.50
23208;BMP180;11773;52.570;13.052;2023-04-03T05:28:37;102882.00;;;7.50
23208;BMP180;11773;52.570;13.052;2023-04-03T05:31:06;102864.00;;;7.50
23208;BMP180;11773;52.570;13.052;2023-04-03T05:33:36;102872.00;;;7.50
23208;BMP180;11773;52.570;13.052;2023-04-03T05:36:06;102867.00;;;7.50
23208;BMP180;11773;52.570;13.052;2023-04-03T05:38:36;102866.00;;;7.50
23208;BMP180;11773;52.570;13.052;2023-04-03T05:41:06;102871.00;;;7.60
23208;BMP180;11773;52.570;13.052;2023-04-03T05:43:35;102866.00;;;7.60
23208;BMP180;11773;52.570;13.052;2023-04-03T05:46:16;102876.00;;;7.60
23208;BMP180;11773;52.570;13.052;2023-04-03T05:48:47;102880.00;;;7.60
23208;BMP180;11773;52.570;13.052;2023-04-03T05:51:26;102876.00;;;7.60
23208;BMP180;11773;52.570;13.052;2023-04-03T05:53:56;102881.00;;;7.60
23208;BMP180;11773;52.570;13.052;2023-04-03T05:56:25;102900.00;;;7.60
23208;BMP180;11773;52.570;13.052;2023-04-03T05:58:54;102889.00;;;7.70
23208;BMP180;11773;52.570;13.052;2023-04-03T06:01:24;102881.00;;;7.70
23208;BMP180;11773;52.570;13.052;2023-04-03T06:03:54;102887.00;;;7.70
23208;BMP180;11773;52.570;13.052;2023-04-03T06:06:25;102896.00;;;7.70
23208;BMP180;11773;52.570;13.052;2023-04-03T06:08:54;102910.00;;;7.80
23208;BMP180;11773;52.570;13.052;2023-04-03T06:11:24;102900.00;;;7.90
23208;BMP180;11773;52.570;13.052;2023-04-03T06:13:53;102891.00;;;7.90
23208;BMP180;11773;52.570;13.052;2023-04-03T06:16:24;102895.00;;;8.00
23208;BMP180;11773;52.570;13.052;2023-04-03T06:18:53;102891.00;;;8.10
23208;BMP180;11773;52.570;13.052;2023-04-03T06:21:23;102900.00;;;8.30
23208;BMP180;11773;52.570;13.052;2023-04-03T06:23:53;102909.00;;;8.50
23208;BMP180;11773;52.570;13.052;2023-04-03T06:26:22;102905.00;;;8.70
23208;BMP180;11773;52.570;13.052;2023-04-03T06:28:52;102913.00;;;8.90
23208;BMP180;11773;52.570;13.052;2023-04-03T06:31:21;102914.00;;;9.20
23208;BMP180;11773;52.570;13.052;2023-04-03T06:33:51;102930.00;;;9.40
23208;BMP180;11773;52.570;13.052;2023-04-03T06:36:21;102917.00;;;9.70
23208;BMP180;11773;52.570;13.052;2023-04-03T06:38:51;102917.00;;;9.90
23208;BMP180;11773;52.570;13.052;2023-04-03T06:41:20;102915.00;;;10.20
23208;BMP180;11773;52.570;13.052;2023-04-03T06:43:50;102929.00;;;10.40
23208;BMP180;11773;52.570;13.052;2023-04-03T06:46:22;102931.00;;;10.70
23208;BMP180;11773;52.570;13.052;2023-04-03T06:48:53;102930.00;;;10.90
23208;BMP180;11773;52.570;13.052;2023-04-03T06:51:28;102940.00;;;11.10
23208;BMP180;11773;52.570;13.052;2023-04-03T06:53:59;102949.00;;;11.30
23208;BMP180;11773;52.570;13.052;2023-04-03T06:56:29;102940.00;;;11.50
23208;BMP180;11773;52.570;13.052;2023-04-03T06:58:59;102944.00;;;11.70
23208;BMP180;11773;52.570;13.052;2023-04-03T07:01:30;102957.00;;;11.90
23208;BMP180;11773;52.570;13.052;2023-04-03T07:04:00;102959.00;;;12.10
23208;BMP180;11773;52.570;13.052;2023-04-03T07:06:29;102957.00;;;12.20
23208;BMP180;11773;52.570;13.052;2023-04-03T07:09:00;102949.00;;;12.40
23208;BMP180;11773;52.570;13.052;2023-04-03T07:11:31;102960.00;;;12.50
23208;BMP180;11773;52.570;13.052;2023-04-03T07:14:00;102956.00;;;12.60
23208;BMP180;11773;52.570;13.052;2023-04-03T07:16:30;102970.00;;;12.60
23208;BMP180;11773;52.570;13.052;2023-04-03T07:19:00;102950.00;;;12.70
23208;BMP180;11773;52.570;13.052;2023-04-03T07:21:30;102959.00;;;12.70
23208;BMP180;11773;52.570;13.052;2023-04-03T07:23:59;102956.00;;;12.60
23208;BMP180;11773;52.570;13.052;2023-04-03T07:26:30;102961.00;;;12.60
23208;BMP180;11773;52.570;13.052;2023-04-03T07:29:00;102965.00;;;12.50
23208;BMP180;11773;52.570;13.052;2023-04-03T07:31:29;102965.00;;;12.50
23208;BMP180;11773;52.570;13.052;2023-04-03T07:33:59;102968.00;;;12.50
23208;BMP180;11773;52.570;13.052;2023-04-03T07:36:29;102964.00;;;12.50
23208;BMP180;11773;52.570;13.052;2023-04-03T07:39:00;102954.00;;;12.50
23208;BMP180;11773;52.570;13.052;2023-04-03T07:41:29;102961.00;;;12.50
23208;BMP180;11773;52.570;13.052;2023-04-03T07:43:59;102957.00;;;12.50
23208;BMP180;11773;52.570;13.052;2023-04-03T07:46:28;102960.00;;;12.50
23208;BMP180;11773;52.570;13.052;2023-04-03T07:48:58;102969.00;;;12.50
23208;BMP180;11773;52.570;13.052;2023-04-03T07:51:28;102972.00;;;12.40
23208;BMP180;11773;52.570;13.052;2023-04-03T07:53:58;102966.00;;;12.40
23208;BMP180;11773;52.570;13.052;2023-04-03T07:56:27;102972.00;;;12.30
23208;BMP180;11773;52.570;13.052;2023-04-03T07:58:57;102970.00;;;12.20
23208;BMP180;11773;52.570;13.052;2023-04-03T08:01:27;102963.00;;;12.20
23208;BMP180;11773;52.570;13.052;2023-04-03T08:03:59;102966.00;;;12.10
23208;BMP180;11773;52.570;13.052;2023-04-03T08:06:30;102967.00;;;12.00
23208;BMP180;11773;52.570;13.052;2023-04-03T08:09:04;102954.00;;;11.90
23208;BMP180;11773;52.570;13.052;2023-04-03T08:11:34;102971.00;;;11.90
23208;BMP180;11773;52.570;13.052;2023-04-03T08:14:04;102983.00;;;11.80
23208;BMP180;11773;52.570;13.052;2023-04-03T08:16:34;102970.00;;;11.70
23208;BMP180;11773;52.570;13.052;2023-04-03T08:19:04;102971.00;;;11.60
23208;BMP180;11773;52.570;13.052;2023-04-03T08:21:37;102978.00;;;11.60
23208;BMP180;11773;52.570;13.052;2023-04-03T08:24:07;102972.00;;;11.60
23208;BMP180;11773;52.570;13.052;2023-04-03T08:26:38;102975.00;;;11.60
23208;BMP180;11773;52.570;13.052;2023-04-03T08:29:10;102982.00;;;11.50
23208;BMP180;11773;52.570;13.052;2023-04-03T08:31:40;102980.00;;;11.50
23208;BMP180;11773;52.570;13.052;2023-04-03T08:34:09;102991.00;;;11.50
23208;BMP180;11773;52.570;13.052;2023-04-03T08:36:40;102977.00;;;11.40
23208;BMP180;11773;52.570;13.052;2023-04-03T08:39:10;102986.00;;;11.40
23208;BMP180;11773;52.570;13.052;2023-04-03T08:41:44;102971.00;;;11.30
23208;BMP180;11773;52.570;13.052;2023-04-03T08:44:26;102969.00;;;11.10
23208;BMP180;11773;52.570;13.052;2023-04-03T08:47:22;102971.00;;;11.00
23208;BMP180;11773;52.570;13.052;2023-04-03T08:49:59;102974.00;;;10.90
23208;BMP180;11773;52.570;13.052;2023-04-03T08:52:55;102971.00;;;10.90
23208;BMP180;11773;52.570;13.052;2023-04-03T08:55:51;102982.00;;;10.80
23208;BMP180;11773;52.570;13.052;2023-04-03T08:58:32;102975.00;;;10.70
23208;BMP180;11773;52.570;13.052;2023-04-03T09:01:19;102974.00;;;10.60
23208;BMP180;11773;52.570;13.052;2023-04-03T09:03:49;102968.00;;;10.50
23208;BMP180;11773;52.570;13.052;2023-04-03T09:06:29;102964.00;;;10.50
23208;BMP180;11773;52.570;13.052;2023-04-03T09:09:35;102977.00;;;10.50
23208;BMP180;11773;52.570;13.052;2023-04-03T09:12:32;102963.00;;;10.40
23208;BMP180;11773;52.570;13.052;2023-04-03T09:15:17;102970.00;;;10.40
23208;BMP180;11773;52.570;13.052;2023-04-03T09:18:10;102968.00;;;10.50
23208;BMP180;11773;52.570;13.052;2023-04-03T09:21:01;102967.00;;;10.60
23208;BMP180;11773;52.570;13.052;2023-04-03T09:23:50;102963.00;;;10.60
23208;BMP180;11773;52.570;13.052;2023-04-03T09:26:30;102950.00;;;10.60
23208;BMP180;11773;52.570;13.052;2023-04-03T09:29:06;102963.00;;;10.60
23208;BMP180;11773;52.570;13.052;2023-04-03T09:31:42;102969.00;;;10.60
23208;BMP180;11773;52.570;13.052;2023-04-03T09:34:23;102955.00;;;10.70
23208;BMP180;11773;52.570;13.052;2023-04-03T09:37:01;102974.00;;;10.70
23208;BMP180;11773;52.570;13.052;2023-04-03T09:39:53;102960.00;;;10.70
23208;BMP180;11773;52.570;13.052;2023-04-03T09:42:25;102967.00;;;10.70
23208;BMP180;11773;52.570;13.052;2023-04-03T09:45:02;102952.00;;;10.70
23208;BMP180;11773;52.570;13.052;2023-04-03T09:47:36;102959.00;;;10.70
23208;BMP180;11773;52.570;13.052;2023-04-03T09:50:21;102950.00;;;10.80
23208;BMP180;11773;52.570;13.052;2023-04-03T09:52:52;102954.00;;;10.80
23208;BMP180;11773;52.570;13.052;2023-04-03T09:55:25;102960.00;;;10.90
23208;BMP180;11773;52.570;13.052;2023-04-03T09:58:20;102951.00;;;11.00
23208;BMP180;11773;52.570;13.052;2023-04-03T10:00:38;102975.00;;;11.00
23208;BMP180;11773;52.570;13.052;2023-04-03T10:03:29;102956.00;;;11.10
23208;BMP180;11773;52.570;13.052;2023-04-03T10:06:01;102946.00;;;11.10
23208;BMP180;11773;52.570;13.052;2023-04-03T10:08:34;102950.00;;;11.10
23208;BMP180;11773;52.570;13.052;2023-04-03T10:11:27;102942.00;;;11.10
23208;BMP180;11773;52.570;13.052;2023-04-03T10:14:03;102932.00;;;11.10
23208;BMP180;11773;52.570;13.052;2023-04-03T10:17:14;102940.00;;;11.20
23208;BMP180;11773;52.570;13.052;2023-04-03T10:19:39;102933.00;;;11.20
23208;BMP180;11773;52.570;13.052;2023-04-03T10:22:37;102925.00;;;11.30
23208;BMP180;11773;52.570;13.052;2023-04-03T10:25:32;102936.00;;;11.30
23208;BMP180;11773;52.570;13.052;2023-04-03T10:28:09;102934.00;;;11.30
23208;BMP180;11773;52.570;13.052;2023-04-03T10:31:25;102925.00;;;11.40
23208;BMP180;11773;52.570;13.052;2023-04-03T10:34:13;102922.00;;;11.40
23208;BMP180;11773;52.570;13.052;2023-04-03T10:40:02;102933.00;;;11.40
23208;BMP180;11773;52.570;13.052;2023-04-03T10:42:50;102938.00;;;11.50
23208;BMP180;11773;52.570;13.052;2023-04-03T10:45:44;102936.00;;;11.60
23208;BMP180;11773;52.570;13.052;2023-04-03T10:48:16;102919.00;;;11.60
23208;BMP180;11773;52.570;13.052;2023-04-03T10:51:12;102911.00;;;11.60
23208;BMP180;11773;52.570;13.052;2023-04-03T10:54:23;102917.00;;;11.60
23208;BMP180;11773;52.570;13.052;2023-04-03T10:56:51;102903.00;;;11.60
23208;BMP180;11773;52.570;13.052;2023-04-03T10:59:49;102896.00;;;11.60
23208;BMP180;11773;52.570;13.052;2023-04-03T11:02:37;102916.00;;;11.60
23208;BMP180;11773;52.570;13.052;2023-04-03T11:05:39;102905.00;;;11.60
23208;BMP180;11773;52.570;13.052;2023-04-03T11:11:16;102886.00;;;11.70
23208;BMP180;11773;52.570;13.052;2023-04-03T11:16:26;102882.00;;;11.80
23208;BMP180;11773;52.570;13.052;2023-04-03T11:19:39;102876.00;;;11.80
23208;BMP180;11773;52.570;13.052;2023-04-03T11:24:57;102886.00;;;11.80
23208;BMP180;11773;52.570;13.052;2023-04-03T11:27:33;102889.00;;;11.80
23208;BMP180;11773;52.570;13.052;2023-04-03T11:30:05;102886.00;;;11.80
23208;BMP180;11773;52.570;13.052;2023-04-03T11:33:12;102880.00;;;11.80
23208;BMP180;11773;52.570;13.052;2023-04-03T11:35:46;102873.00;;;11.80
23208;BMP180;11773;52.570;13.052;2023-04-03T11:38:35;102876.00;;;11.90
23208;BMP180;11773;52.570;13.052;2023-04-03T11:41:09;102882.00;;;11.90
23208;BMP180;11773;52.570;13.052;2023-04-03T11:44:05;102866.00;;;11.90
23208;BMP180;11773;52.570;13.052;2023-04-03T11:46:54;102869.00;;;12.00
23208;BMP180;11773;52.570;13.052;2023-04-03T11:49:52;102867.00;;;12.00
23208;BMP180;11773;52.570;13.052;2023-04-03T11:58:15;102871.00;;;11.90
23208;BMP180;11773;52.570;13.052;2023-04-03T12:00:55;102873.00;;;11.90
23208;BMP180;11773;52.570;13.052;2023-04-03T12:08:45;102872.00;;;12.00
23208;BMP180;11773;52.570;13.052;2023-04-03T12:11:32;102879.00;;;12.00
23208;BMP180;11773;52.570;13.052;2023-04-03T12:14:12;102874.00;;;12.10
23208;BMP180;11773;52.570;13.052;2023-04-03T12:16:44;102877.00;;;12.10
23208;BMP180;11773;52.570;13.052;2023-04-03T12:19:38;102871.00;;;12.10
23208;BMP180;11773;52.570;13.052;2023-04-03T12:22:13;102881.00;;;12.10
23208;BMP180;11773;52.570;13.052;2023-04-03T12:24:50;102878.00;;;12.10
23208;BMP180;11773;52.570;13.052;2023-04-03T12:27:38;102880.00;;;12.10
23208;BMP180;11773;52.570;13.052;2023-04-03T12:30:17;102868.00;;;12.00
23208;BMP180;11773;52.570;13.052;2023-04-03T12:33:12;102867.00;;;12.00
23208;BMP180;11773;52.570;13.052;2023-04-03T12:38:45;102865.00;;;11.90
23208;BMP180;11773;52.570;13.052;2023-04-03T12:41:30;102879.00;;;11.80
23208;BMP180;11773;52.570;13.052;2023-04-03T12:44:42;102872.00;;;11.80
23208;BMP180;11773;52.570;13.052;2023-04-03T12:47:33;102857.00;;;11.70
23208;BMP180;11773;52.570;13.052;2023-04-03T12:50:23;102856.00;;;11.70
23208;BMP180;11773;52.570;13.052;2023-04-03T12:53:12;102864.00;;;11.70
23208;BMP180;11773;52.570;13.052;2023-04-03T12:55:42;102855.00;;;11.70
23208;BMP180;11773;52.570;13.052;2023-04-03T12:58:25;102861.00;;;11.70
23208;BMP180;11773;52.570;13.052;2023-04-03T13:01:04;102866.00;;;11.70
23208;BMP180;11773;52.570;13.052;2023-04-03T13:03:35;102853.00;;;11.70
23208;BMP180;11773;52.570;13.052;2023-04-03T13:06:07;102858.00;;;11.70
23208;BMP180;11773;52.570;13.052;2023-04-03T13:08:36;102860.00;;;11.80
23208;BMP180;11773;52.570;13.052;2023-04-03T13:11:12;102858.00;;;11.80
23208;BMP180;11773;52.570;13.052;2023-04-03T13:13:58;102860.00;;;11.80
23208;BMP180;11773;52.570;13.052;2023-04-03T13:16:28;102853.00;;;11.80
23208;BMP180;11773;52.570;13.052;2023-04-03T13:18:59;102872.00;;;11.90
23208;BMP180;11773;52.570;13.052;2023-04-03T13:21:33;102850.00;;;11.90
23208;BMP180;11773;52.570;13.052;2023-04-03T13:24:05;102849.00;;;11.90
23208;BMP180;11773;52.570;13.052;2023-04-03T13:26:36;102843.00;;;11.90
23208;BMP180;11773;52.570;13.052;2023-04-03T13:29:22;102850.00;;;11.90
23208;BMP180;11773;52.570;13.052;2023-04-03T13:31:42;102853.00;;;11.90
23208;BMP180;11773;52.570;13.052;2023-04-03T13:34:18;102852.00;;;11.90
23208;BMP180;11773;52.570;13.052;2023-04-03T13:36:59;102854.00;;;11.90
23208;BMP180;11773;52.570;13.052;2023-04-03T13:39:34;102854.00;;;11.90
23208;BMP180;11773;52.570;13.052;2023-04-03T13:42:25;102841.00;;;11.90
23208;BMP180;11773;52.570;13.052;2023-04-03T13:47:42;102829.00;;;11.90
23208;BMP180;11773;52.570;13.052;2023-04-03T13:50:24;102847.00;;;11.90
23208;BMP180;11773;52.570;13.052;2023-04-03T13:53:01;102825.00;;;11.90
23208;BMP180;11773;52.570;13.052;2023-04-03T13:55:35;102838.00;;;11.90
23208;BMP180;11773;52.570;13.052;2023-04-03T14:01:09;102827.00;;;11.80
23208;BMP180;11773;52.570;13.052;2023-04-03T14:03:46;102836.00;;;11.80
23208;BMP180;11773;52.570;13.052;2023-04-03T14:06:17;102841.00;;;11.80
23208;BMP180;11773;52.570;13.052;2023-04-03T14:08:46;102834.00;;;11.80
23208;BMP180;11773;52.570;13.052;2023-04-03T14:11:28;102830.00;;;11.80
23208;BMP180;11773;52.570;13.052;2023-04-03T14:14:02;102828.00;;;11.90
23208;BMP180;11773;52.570;13.052;2023-04-03T14:16:37;102822.00;;;11.80
23208;BMP180;11773;52.570;13.052;2023-04-03T14:19:22;102831.00;;;11.80
23208;BMP180;11773;52.570;13.052;2023-04-03T14:21:39;102828.00;;;11.80
23208;BMP180;11773;52.570;13.052;2023-04-03T14:24:08;102828.00;;;11.90
23208;BMP180;11773;52.570;13.052;2023-04-03T14:26:39;102827.00;;;11.90
23208;BMP180;11773;52.570;13.052;2023-04-03T14:29:12;102824.00;;;11.90
23208;BMP180;11773;52.570;13.052;2023-04-03T14:31:44;102829.00;;;11.90
23208;BMP180;11773;52.570;13.052;2023-04-03T14:34:15;102837.00;;;11.90
23208;BMP180;11773;52.570;13.052;2023-04-03T14:36:45;102837.00;;;11.80
23208;BMP180;11773;52.570;13.052;2023-04-03T14:39:18;102834.00;;;11.80
23208;BMP180;11773;52.570;13.052;2023-04-03T14:41:48;102830.00;;;11.80
23208;BMP180;11773;52.570;13.052;2023-04-03T14:44:17;102837.00;;;11.80
23208;BMP180;11773;52.570;13.052;2023-04-03T14:46:47;102842.00;;;11.80
23208;BMP180;11773;52.570;13.052;2023-04-03T14:49:26;102830.00;;;11.80
23208;BMP180;11773;52.570;13.052;2023-04-03T14:51:58;102827.00;;;11.70
23208;BMP180;11773;52.570;13.052;2023-04-03T14:54:28;102823.00;;;11.70
23208;BMP180;11773;52.570;13.052;2023-04-03T14:57:00;102824.00;;;11.70
23208;BMP180;11773;52.570;13.052;2023-04-03T14:59:31;102817.00;;;11.70
23208;BMP180;11773;52.570;13.052;2023-04-03T15:02:01;102811.00;;;11.70
23208;BMP180;11773;52.570;13.052;2023-04-03T15:04:31;102808.00;;;11.70